Finnhawk — OJNL — position and weather

sailwx.info

Track history (hours):
 
Tides and Currents Weather Stations Pressure Air Temp Water Temp Dewpoint Dewpoint Depression Visibility Wind Speed Wind Dir Waves Ship Positions

Finnhawk

Last reported at 2014-Sep-20 15:28 UTC. Time now 2014-Sep-20 20:01 UTC.
Position N 59°36' E 023°04'.

Length 163 m; draft 7 m.

Type: Ship. MMSI: 230007000.

Date/timePositionNaut miles runAvg speedWind from/ knotsBaromVisibWave heightAir tempDewpointWater temp
2014-Sep-20 15:28N 59°36' E 023°04'1616.9
2014-Sep-20 14:33N 59°41' E 023°33'1817.0
2014-Sep-20 13:29N 59°47' E 024°07'1617.5
2014-Sep-20 12:33N 59°51' E 024°38'1717.2
2014-Sep-20 11:33N 60°01' E 025°06'6 0.5
2014-Sep-19 23:25N 60°07' E 025°12'1614.2
2014-Sep-19 22:16N 59°58' E 025°39'1115.6
2014-Sep-19 21:33N 60°02' E 025°60'1616.0
2014-Sep-19 20:33N 60°12' E 026°24'1615.9
2014-Sep-19 19:33N 60°23' E 026°47'8 7.7
2014-Sep-19 18:33N 60°29' E 026°57'0 0.0
2014-Sep-19 17:31N 60°29' E 026°57'0 0.0
2014-Sep-19 16:31N 60°29' E 026°57'0 0.0
2014-Sep-19 15:31N 60°29' E 026°57'0 0.0
2014-Sep-19 14:31N 60°29' E 026°57'0 0.0
2014-Sep-19 13:31N 60°29' E 026°57'0 0.0
2014-Sep-19 12:31N 60°29' E 026°57'0 0.0
2014-Sep-19 11:31N 60°29' E 026°57'0 0.0
2014-Sep-19 10:31N 60°29' E 026°57'0 0.0
2014-Sep-19 09:31N 60°29' E 026°57'0 0.0
2014-Sep-19 08:31N 60°29' E 026°57'0 0.0
2014-Sep-19 07:31N 60°29' E 026°57'0 0.0
2014-Sep-19 06:31N 60°29' E 026°57'0 0.0
2014-Sep-19 05:31N 60°29' E 026°57'0 0.0
2014-Sep-19 04:31N 60°29' E 026°57'0 0.0
2014-Sep-19 03:31N 60°29' E 026°57'0 0.0
2014-Sep-19 02:31N 60°29' E 026°57'5 4.8
2014-Sep-19 01:34N 60°25' E 026°54'1818.2
2014-Sep-19 00:33N 60°14' E 026°25'1210.0
2014-Sep-18 23:20N 60°02' E 026°30'911.4
2014-Sep-18 22:32N 60°01' E 026°48'103 6.1
2014-Sep-18 05:33N 59°54' E 030°13'2 2.5
2014-Sep-18 04:33N 59°54' E 030°08'7814.4
2014-Sep-17 23:06N 60°07' E 027°33'1418.5
2014-Sep-17 22:21N 59°60' E 027°09'1418.0
2014-Sep-17 21:33N 59°60' E 026°41'1918.4
2014-Sep-17 20:32N 59°57' E 026°04'2118.5
2014-Sep-17 19:24N 59°58' E 025°22'1315.6
2014-Sep-17 18:33N 60°11' E 025°13'2 0.8
2014-Sep-17 15:30N 60°13' E 025°12'1213.4
2014-Sep-17 14:33N 60°01' E 025°06'2019.7
2014-Sep-17 13:33N 59°46' E 024°40'2019.6
2014-Sep-17 12:33N 59°41' E 024°02'2019.9
2014-Sep-17 11:33N 59°35' E 023°25'2319.7
2014-Sep-17 10:22N 59°27' E 022°42'13819.5
2014-Sep-17 03:18N 57°44' E 019°48'1519.7
2014-Sep-17 02:33N 57°32' E 019°31'2119.7
2014-Sep-17 01:28N 57°15' E 019°07'1919.7
2014-Sep-17 00:29N 56°59' E 018°45'1819.3
2014-Sep-16 23:33N 56°46' E 018°25'2019.3
2014-Sep-16 22:33N 56°33' E 017°57'2219.2
2014-Sep-16 21:25N 56°20' E 017°26'1719.1
2014-Sep-16 20:31N 56°10' E 017°00'1818.8
2014-Sep-16 19:32N 55°59' E 016°34'3818.7
2014-Sep-16 17:30N 55°41' E 015°35'1818.7
2014-Sep-16 16:33N 55°32' E 015°08'1818.5
2014-Sep-16 15:34N 55°22' E 014°40'1918.6
2014-Sep-16 14:33N 55°09' E 014°16'1818.5
2014-Sep-16 13:34N 55°11' E 013°44'1918.0
2014-Sep-16 12:32N 55°13' E 013°12'1717.6
2014-Sep-16 11:33N 55°17' E 012°43'1515.0
2014-Sep-16 10:33N 55°32' E 012°42'1312.8
2014-Sep-16 09:33N 55°44' E 012°41'1615.8
2014-Sep-16 08:33N 56°00' E 012°40'1716.7
2014-Sep-16 07:33N 56°13' E 012°20'1918.7
2014-Sep-16 06:34N 56°28' E 012°01'1918.4
2014-Sep-16 05:33N 56°46' E 011°52'1818.4
2014-Sep-16 04:33N 57°03' E 011°40'1818.5
2014-Sep-16 03:34N 57°21' E 011°28'1817.6
2014-Sep-16 02:33N 57°34' E 011°08'1817.9
2014-Sep-16 01:33N 57°46' E 010°43'1717.1
2014-Sep-16 00:33N 57°43' E 010°12'38418.3
2014-Sep-15 03:34N 53°53' E 001°04'1919.0
2014-Sep-15 02:33N 53°44' E 000°36'1716.8
2014-Sep-15 01:34N 53°33' E 000°15'1616.0
2014-Sep-15 00:33N 53°38' W 000°11'7 7.1
2014-Sep-14 23:33N 53°44' W 000°16'0 0.3
2014-Sep-14 22:33N 53°44' W 000°16'0 0.0
2014-Sep-14 21:29N 53°44' W 000°16'0 0.0
2014-Sep-14 20:32N 53°44' W 000°16'0 0.0
2014-Sep-14 19:32N 53°44' W 000°16'0 0.0
2014-Sep-14 18:32N 53°44' W 000°16'0 0.0
2014-Sep-14 17:26N 53°44' W 000°16'0 0.0
2014-Sep-14 16:26N 53°44' W 000°16'0 0.0
2014-Sep-14 15:23N 53°44' W 000°16'0 0.0
2014-Sep-14 14:29N 53°44' W 000°16'0 0.3
2014-Sep-14 13:34N 53°44' W 000°16'1 1.5
2014-Sep-14 12:33N 53°43' W 000°15'9 9.2
2014-Sep-14 11:33N 53°37' W 000°04'1312.9
2014-Sep-14 10:33N 53°35' E 000°18'26917.9
2014-Sep-13 19:33N 56°10' E 006°39'1918.4
2014-Sep-13 18:32N 56°23' E 007°03'14918.7
2014-Sep-13 10:33N 57°47' E 010°50'2019.6
2014-Sep-13 09:34N 57°34' E 011°17'1918.8
2014-Sep-13 08:33N 57°17' E 011°34'1919.2
2014-Sep-13 07:33N 56°59' E 011°46'1919.1
2014-Sep-13 06:33N 56°41' E 011°57'1918.8
2014-Sep-13 05:33N 56°24' E 012°11'1919.4
2014-Sep-13 04:33N 56°08' E 012°31'1818.4
2014-Sep-13 03:33N 55°51' E 012°45'1615.5
2014-Sep-13 02:33N 55°36' E 012°42'1414.0
2014-Sep-13 01:33N 55°22' E 012°40'1616.2
2014-Sep-13 00:33N 55°12' E 013°03'1919.0
2014-Sep-12 23:33N 55°00' E 013°29'1918.8
2014-Sep-12 22:33N 54°49' E 013°55'9418.6
2014-Sep-12 17:30N 54°50' E 016°37'1919.7
2014-Sep-12 16:33N 54°54' E 017°09'1919.1
2014-Sep-12 15:33N 54°57' E 017°42'1919.2
2014-Sep-12 14:33N 54°57' E 018°15'1918.5
2014-Sep-12 13:33N 54°52' E 018°46'1716.6
2014-Sep-12 12:34N 54°36' E 018°54'1313.2
2014-Sep-12 11:33N 54°32' E 018°32'0 0.0
2014-Sep-12 10:33N 54°32' E 018°32'0 0.0
2014-Sep-12 09:33N 54°32' E 018°32'0 0.0
2014-Sep-12 08:30N 54°32' E 018°32'0 0.0
2014-Sep-12 07:33N 54°32' E 018°32'0 0.0
2014-Sep-12 06:33N 54°32' E 018°32'0 0.0
2014-Sep-12 05:33N 54°32' E 018°32'0 0.0
2014-Sep-12 04:33N 54°32' E 018°32'0 0.0
2014-Sep-12 03:33N 54°32' E 018°32'0 0.0
2014-Sep-12 02:33N 54°32' E 018°32'0 0.0
2014-Sep-12 01:33N 54°32' E 018°32'0 0.0
2014-Sep-12 00:33N 54°32' E 018°32'0 0.0
2014-Sep-11 23:33N 54°32' E 018°32'0 0.0
2014-Sep-11 22:33N 54°32' E 018°32'0 0.0
2014-Sep-11 21:34N 54°32' E 018°32'6 5.8
2014-Sep-11 20:34N 54°32' E 018°42'1717.2
2014-Sep-11 19:33N 54°46' E 019°00'1919.1
2014-Sep-11 18:34N 55°05' E 019°05'1918.9
2014-Sep-11 17:34N 55°23' E 019°09'1919.0
2014-Sep-11 16:34N 55°42' E 019°12'1919.1
2014-Sep-11 15:33N 56°01' E 019°16'  
Track history (hours):
 
Tides and Currents Weather Stations Pressure Air Temp Water Temp Dewpoint Dewpoint Depression Visibility Wind Speed Wind Dir Waves Ship Positions

Finnhawk

Last reported at 2014-Sep-20 15:28 UTC. Time now 2014-Sep-20 20:01 UTC.
Position N 59°36' E 023°04'.

Length 163 m; draft 7 m.

Type: Ship. MMSI: 230007000.

Date/timePositionNaut miles runAvg speedWind from/ knotsBaromVisibWave heightAir tempDewpointWater temp
2014-Sep-20 15:28N 59°36' E 023°04'1616.9
2014-Sep-20 14:33N 59°41' E 023°33'1817.0
2014-Sep-20 13:29N 59°47' E 024°07'1617.5
2014-Sep-20 12:33N 59°51' E 024°38'1717.2
2014-Sep-20 11:33N 60°01' E 025°06'6 0.5
2014-Sep-19 23:25N 60°07' E 025°12'1614.2
2014-Sep-19 22:16N 59°58' E 025°39'1115.6
2014-Sep-19 21:33N 60°02' E 025°60'1616.0
2014-Sep-19 20:33N 60°12' E 026°24'1615.9
2014-Sep-19 19:33N 60°23' E 026°47'8 7.7
2014-Sep-19 18:33N 60°29' E 026°57'0 0.0
2014-Sep-19 17:31N 60°29' E 026°57'0 0.0
2014-Sep-19 16:31N 60°29' E 026°57'0 0.0
2014-Sep-19 15:31N 60°29' E 026°57'0 0.0
2014-Sep-19 14:31N 60°29' E 026°57'0 0.0
2014-Sep-19 13:31N 60°29' E 026°57'0 0.0
2014-Sep-19 12:31N 60°29' E 026°57'0 0.0
2014-Sep-19 11:31N 60°29' E 026°57'0 0.0
2014-Sep-19 10:31N 60°29' E 026°57'0 0.0
2014-Sep-19 09:31N 60°29' E 026°57'0 0.0
2014-Sep-19 08:31N 60°29' E 026°57'0 0.0
2014-Sep-19 07:31N 60°29' E 026°57'0 0.0
2014-Sep-19 06:31N 60°29' E 026°57'0 0.0
2014-Sep-19 05:31N 60°29' E 026°57'0 0.0
2014-Sep-19 04:31N 60°29' E 026°57'0 0.0
2014-Sep-19 03:31N 60°29' E 026°57'0 0.0
2014-Sep-19 02:31N 60°29' E 026°57'5 4.8
2014-Sep-19 01:34N 60°25' E 026°54'1818.2
2014-Sep-19 00:33N 60°14' E 026°25'1210.0
2014-Sep-18 23:20N 60°02' E 026°30'911.4
2014-Sep-18 22:32N 60°01' E 026°48'103 6.1
2014-Sep-18 05:33N 59°54' E 030°13'2 2.5
2014-Sep-18 04:33N 59°54' E 030°08'7814.4
2014-Sep-17 23:06N 60°07' E 027°33'1418.5
2014-Sep-17 22:21N 59°60' E 027°09'1418.0
2014-Sep-17 21:33N 59°60' E 026°41'1918.4
2014-Sep-17 20:32N 59°57' E 026°04'2118.5
2014-Sep-17 19:24N 59°58' E 025°22'1315.6
2014-Sep-17 18:33N 60°11' E 025°13'2 0.8
2014-Sep-17 15:30N 60°13' E 025°12'1213.4
2014-Sep-17 14:33N 60°01' E 025°06'2019.7
2014-Sep-17 13:33N 59°46' E 024°40'2019.6
2014-Sep-17 12:33N 59°41' E 024°02'2019.9
2014-Sep-17 11:33N 59°35' E 023°25'2319.7
2014-Sep-17 10:22N 59°27' E 022°42'13819.5
2014-Sep-17 03:18N 57°44' E 019°48'1519.7
2014-Sep-17 02:33N 57°32' E 019°31'2119.7
2014-Sep-17 01:28N 57°15' E 019°07'1919.7
2014-Sep-17 00:29N 56°59' E 018°45'1819.3
2014-Sep-16 23:33N 56°46' E 018°25'2019.3
2014-Sep-16 22:33N 56°33' E 017°57'2219.2
2014-Sep-16 21:25N 56°20' E 017°26'1719.1
2014-Sep-16 20:31N 56°10' E 017°00'1818.8
2014-Sep-16 19:32N 55°59' E 016°34'3818.7
2014-Sep-16 17:30N 55°41' E 015°35'1818.7
2014-Sep-16 16:33N 55°32' E 015°08'1818.5
2014-Sep-16 15:34N 55°22' E 014°40'1918.6
2014-Sep-16 14:33N 55°09' E 014°16'1818.5
2014-Sep-16 13:34N 55°11' E 013°44'1918.0
2014-Sep-16 12:32N 55°13' E 013°12'1717.6
2014-Sep-16 11:33N 55°17' E 012°43'1515.0
2014-Sep-16 10:33N 55°32' E 012°42'1312.8
2014-Sep-16 09:33N 55°44' E 012°41'1615.8
2014-Sep-16 08:33N 56°00' E 012°40'1716.7
2014-Sep-16 07:33N 56°13' E 012°20'1918.7
2014-Sep-16 06:34N 56°28' E 012°01'1918.4
2014-Sep-16 05:33N 56°46' E 011°52'1818.4
2014-Sep-16 04:33N 57°03' E 011°40'1818.5
2014-Sep-16 03:34N 57°21' E 011°28'1817.6
2014-Sep-16 02:33N 57°34' E 011°08'1817.9
2014-Sep-16 01:33N 57°46' E 010°43'1717.1
2014-Sep-16 00:33N 57°43' E 010°12'38418.3
2014-Sep-15 03:34N 53°53' E 001°04'1919.0
2014-Sep-15 02:33N 53°44' E 000°36'1716.8
2014-Sep-15 01:34N 53°33' E 000°15'1616.0
2014-Sep-15 00:33N 53°38' W 000°11'7 7.1
2014-Sep-14 23:33N 53°44' W 000°16'0 0.3
2014-Sep-14 22:33N 53°44' W 000°16'0 0.0
2014-Sep-14 21:29N 53°44' W 000°16'0 0.0
2014-Sep-14 20:32N 53°44' W 000°16'0 0.0
2014-Sep-14 19:32N 53°44' W 000°16'0 0.0
2014-Sep-14 18:32N 53°44' W 000°16'0 0.0
2014-Sep-14 17:26N 53°44' W 000°16'0 0.0
2014-Sep-14 16:26N 53°44' W 000°16'0 0.0
2014-Sep-14 15:23N 53°44' W 000°16'0 0.0
2014-Sep-14 14:29N 53°44' W 000°16'0 0.3
2014-Sep-14 13:34N 53°44' W 000°16'1 1.5
2014-Sep-14 12:33N 53°43' W 000°15'9 9.2
2014-Sep-14 11:33N 53°37' W 000°04'1312.9
2014-Sep-14 10:33N 53°35' E 000°18'26917.9
2014-Sep-13 19:33N 56°10' E 006°39'1918.4
2014-Sep-13 18:32N 56°23' E 007°03'14918.7
2014-Sep-13 10:33N 57°47' E 010°50'2019.6
2014-Sep-13 09:34N 57°34' E 011°17'1918.8
2014-Sep-13 08:33N 57°17' E 011°34'1919.2
2014-Sep-13 07:33N 56°59' E 011°46'1919.1
2014-Sep-13 06:33N 56°41' E 011°57'1918.8
2014-Sep-13 05:33N 56°24' E 012°11'1919.4
2014-Sep-13 04:33N 56°08' E 012°31'1818.4
2014-Sep-13 03:33N 55°51' E 012°45'1615.5
2014-Sep-13 02:33N 55°36' E 012°42'1414.0
2014-Sep-13 01:33N 55°22' E 012°40'1616.2
2014-Sep-13 00:33N 55°12' E 013°03'1919.0
2014-Sep-12 23:33N 55°00' E 013°29'1918.8
2014-Sep-12 22:33N 54°49' E 013°55'9418.6
2014-Sep-12 17:30N 54°50' E 016°37'1919.7
2014-Sep-12 16:33N 54°54' E 017°09'1919.1
2014-Sep-12 15:33N 54°57' E 017°42'1919.2
2014-Sep-12 14:33N 54°57' E 018°15'1918.5
2014-Sep-12 13:33N 54°52' E 018°46'1716.6
2014-Sep-12 12:34N 54°36' E 018°54'1313.2
2014-Sep-12 11:33N 54°32' E 018°32'0 0.0
2014-Sep-12 10:33N 54°32' E 018°32'0 0.0
2014-Sep-12 09:33N 54°32' E 018°32'0 0.0
2014-Sep-12 08:30N 54°32' E 018°32'0 0.0
2014-Sep-12 07:33N 54°32' E 018°32'0 0.0
2014-Sep-12 06:33N 54°32' E 018°32'0 0.0
2014-Sep-12 05:33N 54°32' E 018°32'0 0.0
2014-Sep-12 04:33N 54°32' E 018°32'0 0.0
2014-Sep-12 03:33N 54°32' E 018°32'0 0.0
2014-Sep-12 02:33N 54°32' E 018°32'0 0.0
2014-Sep-12 01:33N 54°32' E 018°32'0 0.0
2014-Sep-12 00:33N 54°32' E 018°32'0 0.0
2014-Sep-11 23:33N 54°32' E 018°32'0 0.0
2014-Sep-11 22:33N 54°32' E 018°32'0 0.0
2014-Sep-11 21:34N 54°32' E 018°32'6 5.8
2014-Sep-11 20:34N 54°32' E 018°42'1717.2
2014-Sep-11 19:33N 54°46' E 019°00'1919.1
2014-Sep-11 18:34N 55°05' E 019°05'1918.9
2014-Sep-11 17:34N 55°23' E 019°09'1919.0
2014-Sep-11 16:34N 55°42' E 019°12'1919.1
2014-Sep-11 15:33N 56°01' E 019°16'  

Dump ship's entire track history